CFG7EC LSZH-EDDF
Flight info
| Callsign | CFG7EC |
|---|---|
| Flight time | N/A |
| Altitude | 20000 |
| Route | DEGES3W DEGES Z1 SUDEN T164 KOVAN T163 SPESA SPESA5B |
| Aircraft | A321/M-SDE3FGHIRWY/LB1 |
Departure
| Time | 2026-05-05 14:54 |
|---|---|
| Airport | Zürich Airport (LSZH) |
Arrival
| Time | N/A |
|---|---|
| Airport | Frankfurt Main Airport (EDDF) |
| Time | Latitude | Longitude | Altitude | Speed | Heading |
|---|---|---|---|---|---|
| 2026-05-05 14:24 | 47.44480 | 8.56123 | 1397 ft | 0 kts | 245° |
| 2026-05-05 14:47 | 47.44480 | 8.56122 | 1399 ft | 1 kts | 245° |
| 2026-05-05 14:47 | 47.44472 | 8.56054 | 1397 ft | 11 kts | 274° |
| 2026-05-05 14:48 | 47.44553 | 8.55950 | 1398 ft | 19 kts | 335° |
| 2026-05-05 14:48 | 47.44664 | 8.55873 | 1404 ft | 17 kts | 335° |
| 2026-05-05 14:48 | 47.44776 | 8.55798 | 1405 ft | 21 kts | 335° |
| 2026-05-05 14:48 | 47.44927 | 8.55693 | 1399 ft | 24 kts | 335° |
| 2026-05-05 14:49 | 47.45078 | 8.55592 | 1402 ft | 23 kts | 335° |
| 2026-05-05 14:49 | 47.45220 | 8.55495 | 1399 ft | 22 kts | 335° |
| 2026-05-05 14:49 | 47.45353 | 8.55404 | 1405 ft | 20 kts | 335° |
| 2026-05-05 14:49 | 47.45447 | 8.55397 | 1404 ft | 12 kts | 25° |
| 2026-05-05 14:50 | 47.45515 | 8.55453 | 1400 ft | 10 kts | 46° |
| 2026-05-05 14:50 | 47.45521 | 8.55554 | 1397 ft | 13 kts | 95° |
| 2026-05-05 14:50 | 47.45509 | 8.55724 | 1399 ft | 20 kts | 96° |
| 2026-05-05 14:50 | 47.45494 | 8.55929 | 1397 ft | 19 kts | 96° |
| 2026-05-05 14:51 | 47.45481 | 8.56121 | 1397 ft | 17 kts | 96° |
| 2026-05-05 14:51 | 47.45511 | 8.56276 | 1405 ft | 16 kts | 52° |
| 2026-05-05 14:51 | 47.45574 | 8.56396 | 1407 ft | 14 kts | 53° |
| 2026-05-05 14:51 | 47.45591 | 8.56523 | 1400 ft | 12 kts | 96° |
| 2026-05-05 14:52 | 47.45582 | 8.56653 | 1397 ft | 16 kts | 96° |
| 2026-05-05 14:52 | 47.45567 | 8.56851 | 1397 ft | 19 kts | 96° |
| 2026-05-05 14:52 | 47.45564 | 8.56974 | 1397 ft | 10 kts | 73° |
| 2026-05-05 14:52 | 47.45595 | 8.57017 | 1404 ft | 6 kts | 22° |
| 2026-05-05 14:53 | 47.45649 | 8.57013 | 1405 ft | 8 kts | 332° |
| 2026-05-05 14:53 | 47.45666 | 8.56955 | 1401 ft | 4 kts | 277° |
| 2026-05-05 14:53 | 47.45667 | 8.56946 | 1402 ft | 3 kts | 274° |
| 2026-05-05 14:53 | 47.45689 | 8.56595 | 1398 ft | 71 kts | 276° |
| 2026-05-05 14:54 | 47.45763 | 8.55557 | 1404 ft | 130 kts | 276° |
| 2026-05-05 14:54 | 47.45868 | 8.54000 | 1485 ft | 165 kts | 277° |
| 2026-05-05 14:54 | 47.45986 | 8.52332 | 2120 ft | 165 kts | 277° |
| 2026-05-05 14:54 | 47.46110 | 8.50637 | 2764 ft | 168 kts | 277° |
| 2026-05-05 14:55 | 47.46237 | 8.48897 | 3282 ft | 175 kts | 276° |
| 2026-05-05 14:55 | 47.45954 | 8.47145 | 3671 ft | 182 kts | 237° |
| 2026-05-05 14:55 | 47.45067 | 8.45779 | 4142 ft | 187 kts | 222° |
| 2026-05-05 14:55 | 47.44257 | 8.44235 | 4613 ft | 197 kts | 245° |
| 2026-05-05 14:56 | 47.43692 | 8.42268 | 4898 ft | 218 kts | 246° |
| 2026-05-05 14:56 | 47.43077 | 8.40150 | 5261 ft | 229 kts | 245° |
| 2026-05-05 14:56 | 47.42283 | 8.38117 | 5803 ft | 232 kts | 223° |
| 2026-05-05 14:56 | 47.40882 | 8.37057 | 6466 ft | 228 kts | 186° |
| 2026-05-05 14:57 | 47.39332 | 8.37388 | 7043 ft | 228 kts | 156° |
| 2026-05-05 14:57 | 47.38108 | 8.38849 | 7591 ft | 232 kts | 123° |
| 2026-05-05 14:57 | 47.37698 | 8.41175 | 8174 ft | 239 kts | 88° |
| 2026-05-05 14:57 | 47.38247 | 8.43483 | 8710 ft | 249 kts | 56° |
| 2026-05-05 14:58 | 47.39448 | 8.45410 | 9279 ft | 254 kts | 47° |
| 2026-05-05 14:58 | 47.40696 | 8.47228 | 9862 ft | 255 kts | 47° |
| 2026-05-05 14:58 | 47.41988 | 8.49080 | 10425 ft | 257 kts | 46° |
| 2026-05-05 14:58 | 47.43279 | 8.50932 | 10922 ft | 260 kts | 46° |
| 2026-05-05 14:59 | 47.44560 | 8.52798 | 11394 ft | 264 kts | 49° |
| 2026-05-05 14:59 | 47.45722 | 8.54941 | 11890 ft | 265 kts | 64° |
| 2026-05-05 14:59 | 47.46306 | 8.57552 | 12091 ft | 275 kts | 85° |
| 2026-05-05 14:59 | 47.46444 | 8.60431 | 12233 ft | 295 kts | 94° |
| 2026-05-05 15:00 | 47.46414 | 8.63578 | 12395 ft | 318 kts | 95° |
| 2026-05-05 15:00 | 47.46373 | 8.65836 | 12524 ft | 333 kts | 95° |
| 2026-05-05 15:00 | 47.46338 | 8.70573 | 12699 ft | 363 kts | 93° |
| 2026-05-05 15:00 | 47.46389 | 8.74459 | 12838 ft | 383 kts | 91° |
| 2026-05-05 15:01 | 47.46502 | 8.78405 | 13240 ft | 393 kts | 90° |
| 2026-05-05 15:01 | 47.46516 | 8.82501 | 13894 ft | 392 kts | 98° |
| 2026-05-05 15:01 | 47.46121 | 8.86419 | 14462 ft | 391 kts | 105° |
| 2026-05-05 15:01 | 47.45560 | 8.90420 | 15016 ft | 394 kts | 105° |
| 2026-05-05 15:02 | 47.44985 | 8.94391 | 15528 ft | 398 kts | 106° |
| 2026-05-05 15:02 | 47.44398 | 8.98409 | 16040 ft | 401 kts | 105° |
| 2026-05-05 15:02 | 47.43818 | 9.02405 | 16573 ft | 404 kts | 105° |
| 2026-05-05 15:02 | 47.43222 | 9.06522 | 17102 ft | 407 kts | 105° |
| 2026-05-05 15:03 | 47.42629 | 9.10627 | 17625 ft | 410 kts | 105° |
| 2026-05-05 15:03 | 47.42181 | 9.14807 | 18126 ft | 416 kts | 97° |
| 2026-05-05 15:03 | 47.42247 | 9.19106 | 18544 ft | 424 kts | 86° |
| 2026-05-05 15:03 | 47.42878 | 9.23383 | 19059 ft | 429 kts | 75° |
| 2026-05-05 15:04 | 47.44056 | 9.27449 | 19519 ft | 435 kts | 63° |
| 2026-05-05 15:04 | 47.45571 | 9.31345 | 19808 ft | 437 kts | 62° |
| 2026-05-05 15:04 | 47.47277 | 9.35078 | 19875 ft | 440 kts | 53° |
| 2026-05-05 15:04 | 47.49390 | 9.38352 | 19885 ft | 442 kts | 43° |
| 2026-05-05 15:05 | 47.54641 | 9.43077 | 19896 ft | 446 kts | 21° |
| 2026-05-05 15:05 | 47.57603 | 9.44435 | 19891 ft | 446 kts | 13° |
| 2026-05-05 15:05 | 47.60666 | 9.45178 | 19889 ft | 447 kts | 5° |
| 2026-05-05 15:06 | 47.63768 | 9.45407 | 19893 ft | 446 kts | 2° |
| 2026-05-05 15:06 | 47.66869 | 9.45582 | 19891 ft | 446 kts | 2° |
| 2026-05-05 15:06 | 47.69973 | 9.45747 | 19900 ft | 445 kts | 1° |
| 2026-05-05 15:06 | 47.73067 | 9.45908 | 19889 ft | 445 kts | 1° |
| 2026-05-05 15:07 | 47.76166 | 9.46070 | 19892 ft | 445 kts | 1° |
| 2026-05-05 15:07 | 47.79258 | 9.46233 | 19895 ft | 445 kts | 2° |
| 2026-05-05 15:07 | 47.82359 | 9.46365 | 19875 ft | 445 kts | 0° |
| 2026-05-05 15:07 | 47.85459 | 9.46403 | 19870 ft | 445 kts | 359° |
| 2026-05-05 15:08 | 47.88557 | 9.46373 | 19877 ft | 445 kts | 359° |
| 2026-05-05 15:08 | 47.90604 | 9.46336 | 19870 ft | 445 kts | 359° |
| 2026-05-05 15:08 | 47.94742 | 9.46259 | 19881 ft | 445 kts | 359° |
| 2026-05-05 15:08 | 47.96793 | 9.46233 | 19870 ft | 445 kts | 359° |
| 2026-05-05 15:09 | 47.99308 | 9.46213 | 19883 ft | 445 kts | 359° |
| 2026-05-05 15:09 | 48.01362 | 9.46208 | 19868 ft | 445 kts | 359° |
| 2026-05-05 15:09 | 48.02859 | 9.46206 | 19871 ft | 445 kts | 359° |
| 2026-05-05 15:09 | 48.05952 | 9.46205 | 19867 ft | 445 kts | 359° |
| 2026-05-05 15:10 | 48.09049 | 9.46204 | 19870 ft | 446 kts | 359° |
| 2026-05-05 15:10 | 48.12152 | 9.46204 | 19866 ft | 446 kts | 359° |
| 2026-05-05 15:10 | 48.15250 | 9.46201 | 19869 ft | 446 kts | 359° |
| 2026-05-05 15:10 | 48.18356 | 9.46197 | 19870 ft | 446 kts | 359° |
| 2026-05-05 15:11 | 48.21456 | 9.46197 | 19868 ft | 446 kts | 359° |
| 2026-05-05 15:11 | 48.24556 | 9.46200 | 19871 ft | 446 kts | 359° |
| 2026-05-05 15:11 | 48.27658 | 9.46204 | 19873 ft | 445 kts | 359° |
| 2026-05-05 15:11 | 48.30750 | 9.46207 | 19869 ft | 443 kts | 359° |
| 2026-05-05 15:12 | 48.33835 | 9.46210 | 19873 ft | 443 kts | 359° |
| 2026-05-05 15:12 | 48.36915 | 9.46216 | 19870 ft | 443 kts | 359° |
| 2026-05-05 15:12 | 48.39998 | 9.46220 | 19870 ft | 443 kts | 359° |
| 2026-05-05 15:12 | 48.43078 | 9.46222 | 19871 ft | 443 kts | 359° |
| 2026-05-05 15:13 | 48.46151 | 9.46028 | 19869 ft | 442 kts | 351° |
| 2026-05-05 15:13 | 48.49141 | 9.45013 | 19870 ft | 440 kts | 340° |
| 2026-05-05 15:13 | 48.51940 | 9.43187 | 19870 ft | 438 kts | 329° |
| 2026-05-05 15:13 | 48.54458 | 9.40641 | 19870 ft | 435 kts | 318° |
| 2026-05-05 15:14 | 48.56643 | 9.37427 | 19864 ft | 432 kts | 308° |
| 2026-05-05 15:14 | 48.58396 | 9.33782 | 19866 ft | 430 kts | 301° |
| 2026-05-05 15:14 | 48.60123 | 9.30166 | 19865 ft | 432 kts | 308° |
| 2026-05-05 15:14 | 48.62267 | 9.26893 | 19864 ft | 435 kts | 317° |
| 2026-05-05 15:15 | 48.64699 | 9.24259 | 19869 ft | 437 kts | 327° |
| 2026-05-05 15:15 | 48.67432 | 9.22228 | 19866 ft | 439 kts | 335° |
| 2026-05-05 15:15 | 48.70275 | 9.20380 | 19864 ft | 439 kts | 335° |
| 2026-05-05 15:15 | 48.73074 | 9.18539 | 19864 ft | 439 kts | 335° |
| 2026-05-05 15:16 | 48.75876 | 9.16682 | 19868 ft | 439 kts | 335° |
| 2026-05-05 15:16 | 48.78637 | 9.14842 | 19865 ft | 439 kts | 334° |
| 2026-05-05 15:16 | 48.81471 | 9.12947 | 19867 ft | 439 kts | 334° |
| 2026-05-05 15:16 | 48.84268 | 9.11094 | 19867 ft | 439 kts | 336° |
| 2026-05-05 15:17 | 48.87191 | 9.09702 | 19867 ft | 441 kts | 346° |
| 2026-05-05 15:17 | 48.90229 | 9.09042 | 19870 ft | 442 kts | 356° |
| 2026-05-05 15:17 | 48.93302 | 9.09127 | 19871 ft | 443 kts | 5° |
| 2026-05-05 15:17 | 48.96371 | 9.09583 | 19872 ft | 443 kts | 5° |
| 2026-05-05 15:18 | 48.99447 | 9.10034 | 19872 ft | 443 kts | 5° |
| 2026-05-05 15:18 | 49.02517 | 9.10479 | 19873 ft | 444 kts | 5° |
| 2026-05-05 15:18 | 49.05589 | 9.10918 | 19874 ft | 444 kts | 5° |
| 2026-05-05 15:18 | 49.08645 | 9.11350 | 19873 ft | 444 kts | 5° |
| 2026-05-05 15:19 | 49.11742 | 9.11786 | 19872 ft | 444 kts | 5° |
| 2026-05-05 15:19 | 49.14813 | 9.12222 | 19874 ft | 444 kts | 5° |
| 2026-05-05 15:19 | 49.17887 | 9.12659 | 19876 ft | 444 kts | 5° |
| 2026-05-05 15:19 | 49.20960 | 9.13094 | 19877 ft | 444 kts | 5° |
| 2026-05-05 15:20 | 49.24036 | 9.13530 | 19876 ft | 444 kts | 5° |
| 2026-05-05 15:20 | 49.27106 | 9.13971 | 19876 ft | 444 kts | 5° |
| 2026-05-05 15:20 | 49.30146 | 9.14774 | 19877 ft | 444 kts | 13° |
| 2026-05-05 15:20 | 49.33155 | 9.15852 | 19875 ft | 442 kts | 13° |
| 2026-05-05 15:21 | 49.36084 | 9.16898 | 19684 ft | 427 kts | 13° |
| 2026-05-05 15:21 | 49.38975 | 9.17926 | 19041 ft | 425 kts | 13° |
| 2026-05-05 15:21 | 49.41853 | 9.18944 | 18435 ft | 423 kts | 13° |
| 2026-05-05 15:21 | 49.44714 | 9.19953 | 17818 ft | 421 kts | 13° |
| 2026-05-05 15:22 | 49.47557 | 9.20956 | 17234 ft | 417 kts | 12° |
| 2026-05-05 15:22 | 49.50453 | 9.21982 | 16646 ft | 413 kts | 12° |
| 2026-05-05 15:22 | 49.53162 | 9.22945 | 16110 ft | 409 kts | 12° |
| 2026-05-05 15:22 | 49.55831 | 9.23898 | 15588 ft | 405 kts | 12° |
| 2026-05-05 15:23 | 49.58566 | 9.24878 | 15076 ft | 401 kts | 12° |
| 2026-05-05 15:23 | 49.61275 | 9.25854 | 14587 ft | 397 kts | 12° |
| 2026-05-05 15:23 | 49.63950 | 9.26819 | 14107 ft | 393 kts | 12° |
| 2026-05-05 15:23 | 49.66602 | 9.27772 | 13629 ft | 389 kts | 12° |
| 2026-05-05 15:24 | 49.69227 | 9.28711 | 13089 ft | 386 kts | 12° |
| 2026-05-05 15:24 | 49.71829 | 9.29643 | 12559 ft | 382 kts | 12° |
| 2026-05-05 15:24 | 49.74411 | 9.30544 | 12023 ft | 378 kts | 9° |
| 2026-05-05 15:24 | 49.76980 | 9.30672 | 11878 ft | 362 kts | 352° |
| 2026-05-05 15:25 | 49.79347 | 9.29717 | 11731 ft | 345 kts | 334° |
| 2026-05-05 15:25 | 49.81438 | 9.28063 | 11614 ft | 331 kts | 330° |
| 2026-05-05 15:25 | 49.83429 | 9.26419 | 11487 ft | 319 kts | 330° |
| 2026-05-05 15:25 | 49.85352 | 9.24818 | 11362 ft | 308 kts | 330° |